Time;durP1;ratioP1;P1;durP2;ratioP2;P2;SDS_P1;SDS_P2;PMS_P1;PMS_P2;Temp;Humidity;BMP_temperature;BMP_pressure;BME280_temperature;BME280_humidity;BME280_pressure;Samples;Min_cycle;Max_cycle;Signal;HPM_P1;HPM_P2
2022/08/16 00:04:42;;;;;;;14.13;9.13;;;21.00;99.90;;;;;;12439219;28;20045;-38
2022/08/16 00:10:44;;;;;;;12.85;8.98;;;20.90;99.90;;;;;;12441241;28;20042;-34
2022/08/16 00:16:46;;;;;;;12.20;8.40;;;20.70;99.90;;;;;;12440230;28;20038;-34
2022/08/16 00:23:08;;;;;;;13.82;8.52;;;20.70;99.90;;;;;;12437711;28;20494;-38
2022/08/16 00:29:16;;;;;;;15.00;8.52;;;20.60;99.90;;;;;;12433926;28;20054;-34
2022/08/16 00:35:22;;;;;;;11.75;8.45;;;20.70;99.90;;;;;;12435812;28;20088;-34
2022/08/16 00:41:27;;;;;;;13.05;8.30;;;20.70;99.90;;;;;;12438875;28;20188;-38
2022/08/16 00:47:29;;;;;;;9.43;7.65;;;20.70;99.90;;;;;;12442526;28;20425;-34
2022/08/16 00:53:31;;;;;;;12.98;7.65;;;20.70;99.90;;;;;;12441055;28;20477;-37
2022/08/16 00:59:36;;;;;;;13.20;8.10;;;20.60;99.90;;;;;;12437317;28;20103;-34
2022/08/16 01:05:55;;;;;;;14.25;7.47;;;20.50;99.90;;;;;;12411752;28;20589;-34
2022/08/16 01:11:59;;;;;;;11.23;8.27;;;20.50;99.90;;;;;;12430377;28;20050;-38
2022/08/16 01:18:04;;;;;;;11.83;7.43;;;20.40;99.90;;;;;;12434396;28;20540;-34
2022/08/16 01:24:30;;;;;;;16.98;7.82;;;20.30;99.90;;;;;;12427504;28;20110;-34
2022/08/16 01:30:57;;;;;;;9.45;6.80;;;20.40;99.90;;;;;;12423903;28;20081;-34
2022/08/16 01:37:06;;;;;;;13.48;7.10;;;20.50;99.90;;;;;;12435218;28;20057;-34
2022/08/16 01:43:09;;;;;;;9.48;6.47;;;20.50;99.90;;;;;;12444325;28;20626;-34
2022/08/16 01:49:20;;;;;;;9.85;6.30;;;20.40;99.90;;;;;;12436729;28;20161;-38
2022/08/16 01:55:23;;;;;;;9.77;6.10;;;20.50;99.90;;;;;;12440912;28;20172;-38
2022/08/16 02:01:26;;;;;;;10.93;5.70;;;20.40;99.90;;;;;;12437438;28;20116;-38
2022/08/16 02:07:29;;;;;;;8.65;5.35;;;20.50;99.90;;;;;;12424860;28;20050;-38
2022/08/16 02:13:33;;;;;;;7.32;4.88;;;20.50;99.90;;;;;;12432689;28;20500;-34
2022/08/16 02:19:38;;;;;;;7.50;5.07;;;20.60;99.90;;;;;;12442178;28;20099;-34
2022/08/16 02:26:00;;;;;;;10.05;4.82;;;20.50;99.90;;;;;;12434559;28;20057;-34
2022/08/16 02:32:03;;;;;;;7.53;4.75;;;20.50;99.90;;;;;;12434119;28;20096;-38
2022/08/16 02:38:27;;;;;;;6.65;4.88;;;20.50;99.90;;;;;;12436990;28;20238;-34
2022/08/16 02:44:30;;;;;;;7.10;4.47;;;20.50;99.90;;;;;;12434293;28;20050;-38
2022/08/16 02:50:31;;;;;;;6.82;4.82;;;20.40;99.90;;;;;;12432538;28;20041;-34
2022/08/16 02:56:53;;;;;;;10.43;5.32;;;20.40;99.90;;;;;;12444135;28;20050;-38
2022/08/16 03:02:57;;;;;;;7.03;4.18;;;20.50;99.90;;;;;;12432911;28;20096;-34
2022/08/16 03:08:59;;;;;;;7.18;4.60;;;20.50;99.90;;;;;;12431663;28;20061;-38
2022/08/16 03:15:02;;;;;;;6.23;4.37;;;20.50;99.90;;;;;;12432834;28;20541;-38
2022/08/16 03:21:06;;;;;;;5.90;4.15;;;20.50;99.90;;;;;;12434141;28;20049;-39
2022/08/16 03:27:11;;;;;;;5.55;4.07;;;20.50;99.90;;;;;;12438633;28;20096;-38
2022/08/16 03:33:14;;;;;;;6.60;4.30;;;20.60;99.90;;;;;;12424660;28;20076;-34
2022/08/16 03:39:16;;;;;;;12.10;5.30;;;20.70;99.90;;;;;;12430906;28;20085;-34
2022/08/16 03:45:20;;;;;;;7.95;5.35;;;20.60;99.90;;;;;;12433801;28;20046;-34
2022/08/16 03:51:31;;;;;;;7.22;4.60;;;20.60;99.90;;;;;;12440579;28;20464;-38
2022/08/16 03:57:32;;;;;;;6.35;4.40;;;20.50;99.90;;;;;;12430996;28;20049;-38
2022/08/16 04:03:37;;;;;;;6.95;4.60;;;20.30;99.90;;;;;;12430354;28;20049;-34
2022/08/16 04:09:39;;;;;;;7.53;4.22;;;20.30;99.90;;;;;;12441300;28;20461;-34
2022/08/16 04:15:41;;;;;;;5.65;3.78;;;20.30;99.90;;;;;;12430529;28;20042;-38
2022/08/16 04:21:43;;;;;;;6.80;4.03;;;20.40;99.90;;;;;;12431859;28;20038;-38
2022/08/16 04:27:48;;;;;;;7.32;4.38;;;20.40;99.90;;;;;;12435455;28;20625;-35
2022/08/16 04:33:58;;;;;;;7.85;3.78;;;20.40;99.90;;;;;;12396296;28;20081;-34
2022/08/16 04:39:59;;;;;;;6.43;4.43;;;20.30;99.90;;;;;;12377165;28;20417;-41
2022/08/16 04:46:06;;;;;;;5.78;4.30;;;20.20;99.90;;;;;;12383659;28;20506;-34
2022/08/16 04:52:28;;;;;;;6.00;4.05;;;20.20;99.90;;;;;;12378111;28;20421;-38
2022/08/16 04:58:35;;;;;;;5.80;4.05;;;20.20;99.90;;;;;;12391106;28;20051;-38
2022/08/16 05:04:45;;;;;;;6.50;4.13;;;20.20;99.90;;;;;;12378399;28;20054;-38
2022/08/16 05:10:47;;;;;;;4.90;4.00;;;20.10;99.90;;;;;;12380175;28;20050;-38
2022/08/16 05:16:49;;;;;;;5.72;3.88;;;20.00;99.90;;;;;;12393714;28;20077;-38
2022/08/16 05:22:52;;;;;;;5.07;3.90;;;20.10;99.90;;;;;;12385929;28;20478;-39
2022/08/16 05:28:56;;;;;;;;;;;20.10;99.90;;;;;;12389883;28;20053;-38
2022/08/16 05:34:58;;;;;;;7.05;3.97;;;20.20;99.90;;;;;;12387544;28;20281;-38
2022/08/16 05:41:02;;;;;;;6.50;4.05;;;20.30;99.90;;;;;;12390535;28;20402;-38
2022/08/16 05:47:04;;;;;;;5.43;4.15;;;20.30;99.90;;;;;;12391716;28;20088;-39
2022/08/16 05:53:08;;;;;;;6.20;4.35;;;20.30;99.90;;;;;;12390727;28;20054;-35
2022/08/16 05:59:10;;;;;;;6.25;4.00;;;20.30;99.90;;;;;;12386031;28;20069;-34
2022/08/16 06:05:13;;;;;;;8.75;4.35;;;20.50;99.90;;;;;;12426092;28;20060;-38
2022/08/16 06:11:16;;;;;;;8.60;4.43;;;20.50;99.90;;;;;;12438591;28;20045;-38
2022/08/16 06:17:19;;;;;;;6.10;4.07;;;20.60;99.90;;;;;;12428359;28;20077;-38
2022/08/16 06:23:22;;;;;;;5.97;4.43;;;20.70;99.90;;;;;;12436201;28;20046;-38
2022/08/16 06:29:24;;;;;;;6.28;4.05;;;20.70;99.90;;;;;;12433648;28;20347;-34
2022/08/16 06:35:27;;;;;;;5.80;4.43;;;20.80;99.90;;;;;;12435080;28;20045;-38
2022/08/16 06:41:41;;;;;;;9.55;4.60;;;20.90;99.90;;;;;;12437413;28;20038;-38
2022/08/16 06:47:43;;;;;;;7.10;4.45;;;21.00;99.90;;;;;;12440931;28;20119;-34
2022/08/16 06:53:57;;;;;;;9.18;4.55;;;21.20;99.90;;;;;;12444760;28;20091;-34
2022/08/16 06:59:58;;;;;;;5.28;4.18;;;21.30;99.90;;;;;;12439207;28;20042;-39
2022/08/16 07:06:03;;;;;;;7.25;4.25;;;21.40;99.90;;;;;;12432908;28;20058;-39
2022/08/16 07:12:05;;;;;;;5.75;4.30;;;21.60;99.90;;;;;;12435296;28;20091;-34
2022/08/16 07:18:07;;;;;;;8.32;4.55;;;21.80;99.90;;;;;;12431788;28;20575;-34
2022/08/16 07:24:09;;;;;;;6.82;4.75;;;21.90;99.90;;;;;;12433638;28;20042;-34
2022/08/16 07:30:32;;;;;;;6.07;4.50;;;22.00;99.90;;;;;;12428006;28;20054;-39
2022/08/16 07:36:47;;;;;;;8.18;4.65;;;22.20;99.90;;;;;;12433189;28;20053;-38
2022/08/16 07:42:59;;;;;;;7.03;4.82;;;22.30;99.90;;;;;;12432810;28;20046;-38
2022/08/16 07:49:01;;;;;;;9.75;4.40;;;22.30;99.90;;;;;;12433425;28;20053;-34
2022/08/16 07:55:04;;;;;;;;;;;22.30;99.90;;;;;;12432253;28;20080;-38
2022/08/16 08:01:07;;;;;;;6.90;5.25;;;22.60;99.90;;;;;;12431265;28;20369;-35
2022/08/16 08:07:13;;;;;;;10.02;5.20;;;22.60;99.90;;;;;;12439329;28;20545;-38
2022/08/16 08:13:17;;;;;;;10.00;5.25;;;22.80;99.90;;;;;;12427566;28;20132;-34
2022/08/16 08:19:19;;;;;;;8.63;5.37;;;22.70;99.90;;;;;;12432851;28;20069;-38
2022/08/16 08:25:21;;;;;;;9.77;5.18;;;22.60;99.90;;;;;;12370982;28;20093;-38
2022/08/16 08:31:23;;;;;;;8.13;5.60;;;22.80;99.90;;;;;;12375895;28;20147;-34
2022/08/16 08:37:26;;;;;;;6.97;4.85;;;23.00;99.90;;;;;;12377594;28;20050;-38
2022/08/16 08:43:48;;;;;;;8.02;4.72;;;23.30;99.90;;;;;;12380011;28;20042;-39
2022/08/16 08:49:51;;;;;;;7.10;4.95;;;23.60;99.90;;;;;;12391170;28;20076;-34
2022/08/16 08:55:59;;;;;;;12.07;5.15;;;23.70;99.90;;;;;;12394064;28;20043;-35
2022/08/16 09:02:00;;;;;;;9.45;4.53;;;23.90;99.90;;;;;;12390653;28;20088;-38
2022/08/16 09:08:05;;;;;;;7.85;4.28;;;24.00;99.90;;;;;;12382752;28;20046;-40
2022/08/16 09:14:09;;;;;;;7.70;4.88;;;24.20;99.90;;;;;;12399918;28;20149;-38
2022/08/16 09:20:28;;;;;;;5.68;4.57;;;24.40;99.90;;;;;;12391455;28;20050;-35
2022/08/16 09:26:30;;;;;;;8.85;4.88;;;24.60;99.90;;;;;;12395915;28;20145;-36
2022/08/16 09:32:48;;;;;;;8.13;4.85;;;24.80;99.90;;;;;;12391885;28;20477;-35
2022/08/16 09:38:50;;;;;;;8.63;5.43;;;25.10;99.90;;;;;;12387281;28;20046;-34
2022/08/16 09:45:00;;;;;;;8.50;5.22;;;25.20;99.90;;;;;;12381310;28;20517;-38
2022/08/16 09:51:14;;;;;;;6.43;4.28;;;25.00;99.90;;;;;;12387358;28;20604;-39
2022/08/16 09:57:16;;;;;;;7.00;4.30;;;25.30;99.90;;;;;;12392697;28;20050;-38
2022/08/16 10:03:18;;;;;;;6.72;4.10;;;25.10;99.90;;;;;;12389689;28;20074;-35
2022/08/16 10:09:21;;;;;;;;;;;25.60;99.90;;;;;;12390037;28;20112;-34
2022/08/16 10:15:27;;;;;;;8.40;3.90;;;25.70;99.90;;;;;;12385824;28;20358;-34
2022/08/16 10:21:31;;;;;;;10.25;3.58;;;26.10;99.90;;;;;;12385506;28;20046;-38
2022/08/16 10:27:34;;;;;;;7.57;4.70;;;26.30;99.90;;;;;;12388545;28;20095;-35
2022/08/16 10:33:52;;;;;;;6.90;4.40;;;26.40;99.90;;;;;;12388446;28;20100;-36
2022/08/16 10:39:54;;;;;;;6.80;3.60;;;26.70;99.90;;;;;;12387672;28;20486;-39
2022/08/16 10:45:56;;;;;;;6.83;3.83;;;26.90;99.90;;;;;;12378190;28;20533;-38
2022/08/16 10:52:02;;;;;;;5.22;3.80;;;27.20;99.90;;;;;;12400287;28;20065;-39
2022/08/16 10:58:20;;;;;;;5.90;4.22;;;27.40;99.90;;;;;;12383723;28;20072;-34
2022/08/16 11:04:35;;;;;;;6.97;3.97;;;27.40;99.90;;;;;;12387319;28;20038;-35
2022/08/16 11:10:58;;;;;;;7.03;4.10;;;27.60;99.90;;;;;;12383630;28;20375;-38
2022/08/16 11:17:09;;;;;;;6.47;3.30;;;27.90;99.90;;;;;;12381021;28;20046;-34
2022/08/16 11:23:12;;;;;;;7.47;3.30;;;28.10;99.90;;;;;;12381459;28;20042;-35
2022/08/16 11:29:17;;;;;;;7.03;3.50;;;28.10;99.90;;;;;;12392949;28;20542;-35
2022/08/16 11:35:22;;;;;;;5.55;3.63;;;28.40;99.90;;;;;;12376750;28;20042;-34
2022/08/16 11:41:45;;;;;;;4.78;3.13;;;28.60;99.90;;;;;;12384544;28;20042;-38
2022/08/16 11:47:52;;;;;;;4.90;3.20;;;28.50;99.90;;;;;;12386309;28;20053;-38
2022/08/16 11:53:53;;;;;;;5.00;3.40;;;28.80;99.90;;;;;;12391388;28;20050;-39
2022/08/16 11:59:55;;;;;;;6.93;2.92;;;29.10;99.90;;;;;;12386414;28;20078;-34
2022/08/16 12:05:59;;;;;;;4.03;3.20;;;29.20;99.90;;;;;;12382225;28;20359;-34
2022/08/16 12:12:01;;;;;;;5.28;2.45;;;29.00;99.90;;;;;;12379606;28;20055;-34
2022/08/16 12:18:04;;;;;;;5.20;2.70;;;29.30;99.90;;;;;;12379409;28;20046;-38
2022/08/16 12:24:07;;;;;;;5.93;2.78;;;29.30;99.90;;;;;;12380237;28;20112;-40
2022/08/16 12:30:11;;;;;;;4.50;2.58;;;29.30;99.90;;;;;;12380264;28;20131;-35
2022/08/16 12:36:27;;;;;;;6.53;2.30;;;29.10;99.90;;;;;;12381891;28;20046;-37
2022/08/16 12:42:33;;;;;;;7.25;2.80;;;29.00;99.90;;;;;;12382592;28;20092;-34
2022/08/16 12:54:57;;;;;;;8.48;2.60;;;29.60;99.90;;;;;;12370046;28;20447;-38
2022/08/16 13:01:02;;;;;;;11.60;2.90;;;30.00;99.90;;;;;;12383230;28;20416;-34
2022/08/16 13:07:04;;;;;;;5.07;2.50;;;30.30;99.90;;;;;;12387759;28;20475;-39
2022/08/16 13:13:09;;;;;;;5.88;2.60;;;30.40;99.90;;;;;;12372124;28;20129;-39
2022/08/16 13:19:11;;;;;;;5.15;2.95;;;30.30;99.90;;;;;;12378525;28;20053;-34
2022/08/16 13:25:18;;;;;;;4.82;2.63;;;30.70;99.90;;;;;;12382264;28;20613;-38
2022/08/16 13:31:22;;;;;;;4.75;2.83;;;30.50;99.90;;;;;;12381379;28;20046;-38
2022/08/16 13:37:24;;;;;;;7.40;3.10;;;30.90;99.90;;;;;;12387305;28;20050;-34
2022/08/16 13:43:28;;;;;;;8.00;3.28;;;30.50;99.90;;;;;;12385759;28;20058;-38
2022/08/16 13:49:33;;;;;;;6.28;2.78;;;30.80;99.90;;;;;;12392179;28;20050;-34
2022/08/16 13:55:36;;;;;;;4.95;2.80;;;30.50;99.90;;;;;;12391686;28;20096;-38
2022/08/16 14:01:42;;;;;;;5.55;2.58;;;30.70;99.90;;;;;;12388113;28;20162;-34
2022/08/16 14:07:45;;;;;;;7.57;2.85;;;31.10;99.90;;;;;;12384118;28;20072;-35
2022/08/16 14:13:53;;;;;;;8.65;3.00;;;30.20;99.90;;;;;;12384181;28;20073;-34
2022/08/16 14:19:55;;;;;;;9.55;3.35;;;29.50;99.90;;;;;;12380453;28;20069;-34
2022/08/16 14:26:01;;;;;;;22.35;3.45;;;29.10;99.90;;;;;;12381084;28;20077;-35
2022/08/16 14:32:06;;;;;;;6.80;3.22;;;29.50;99.90;;;;;;12386183;28;20073;-39
2022/08/16 14:38:09;;;;;;;6.70;2.80;;;30.10;99.90;;;;;;12388995;28;20073;-38
2022/08/16 14:44:18;;;;;;;5.70;2.53;;;30.50;99.90;;;;;;12386936;28;20049;-34
2022/08/16 14:50:24;;;;;;;4.72;2.80;;;30.70;99.90;;;;;;12384591;28;20378;-39
2022/08/16 14:56:27;;;;;;;8.50;3.38;;;30.80;99.90;;;;;;12390135;28;20487;-35
2022/08/16 15:02:48;;;;;;;6.28;2.90;;;30.70;99.90;;;;;;12383936;28;20069;-38
2022/08/16 15:08:50;;;;;;;8.88;2.78;;;30.90;99.90;;;;;;12377700;28;20061;-34
2022/08/16 15:14:54;;;;;;;5.78;2.90;;;31.00;99.90;;;;;;12379932;28;20047;-35
2022/08/16 15:20:56;;;;;;;5.55;2.53;;;30.90;99.90;;;;;;12385090;28;20053;-35
2022/08/16 15:26:59;;;;;;;7.32;3.28;;;30.40;99.90;;;;;;12383010;28;20046;-35
2022/08/16 15:33:08;;;;;;;5.07;2.88;;;30.40;99.90;;;;;;12381072;28;20092;-35
2022/08/16 15:39:10;;;;;;;9.18;3.30;;;30.30;99.90;;;;;;12385156;28;20085;-35
2022/08/16 15:51:56;;;;;;;6.68;2.67;;;30.30;99.90;;;;;;12384251;28;20045;-38
2022/08/16 15:57:59;;;;;;;4.95;2.90;;;30.10;99.90;;;;;;12392825;28;20088;-35
2022/08/16 16:04:22;;;;;;;9.93;3.00;;;30.40;99.90;;;;;;12382444;28;20422;-38
2022/08/16 16:10:26;;;;;;;18.25;2.90;;;30.30;99.90;;;;;;12384506;28;20830;-35
2022/08/16 16:16:30;;;;;;;7.30;2.50;;;30.30;99.90;;;;;;12378852;28;20046;-35
2022/08/16 16:22:33;;;;;;;8.60;2.78;;;30.30;99.90;;;;;;12321976;28;20042;-35
2022/08/16 16:29:25;;;;;;;10.85;3.00;;;30.20;99.90;;;;;;12580793;27;20126;-38
2022/08/16 16:35:29;;;;;;;6.57;3.22;;;29.50;99.90;;;;;;12541370;28;20056;-34
2022/08/16 16:41:35;;;;;;;7.95;2.95;;;29.20;99.90;;;;;;12529436;28;20124;-38
2022/08/16 16:47:38;;;;;;;7.20;3.05;;;29.50;99.90;;;;;;12543511;28;20086;-34
2022/08/16 16:53:46;;;;;;;6.30;3.05;;;29.20;99.90;;;;;;12542646;28;20056;-34
2022/08/16 16:59:56;;;;;;;7.63;2.95;;;29.10;99.90;;;;;;12541199;28;20060;-34
2022/08/16 17:05:59;;;;;;;7.27;2.97;;;29.00;99.90;;;;;;12539109;28;20034;-34
2022/08/16 17:12:11;;;;;;;7.47;3.40;;;28.80;99.90;;;;;;12548582;28;20524;-34
2022/08/16 17:18:26;;;;;;;7.32;3.08;;;28.40;99.90;;;;;;12529154;28;20038;-38
2022/08/16 17:24:50;;;;;;;6.80;3.07;;;28.30;99.90;;;;;;12515271;28;20049;-34
2022/08/16 17:30:53;;;;;;;6.97;3.28;;;28.30;99.90;;;;;;12559218;28;20052;-37
2022/08/16 17:36:56;;;;;;;5.75;3.38;;;28.30;99.90;;;;;;12548850;28;20088;-34
2022/08/16 17:43:00;;;;;;;6.78;3.10;;;28.30;99.90;;;;;;12529708;28;20511;-34
2022/08/16 17:49:02;;;;;;;6.43;3.20;;;28.50;99.90;;;;;;12531799;28;20057;-38
2022/08/16 17:55:12;;;;;;;6.57;3.15;;;28.30;99.90;;;;;;12521412;28;20331;-34
2022/08/16 18:01:14;;;;;;;7.53;3.20;;;28.30;99.90;;;;;;12521128;28;20049;-38
2022/08/16 18:07:16;;;;;;;8.88;3.33;;;28.10;99.90;;;;;;12521408;28;20140;-37
2022/08/16 18:13:18;;;;;;;11.47;3.40;;;28.00;99.90;;;;;;12516286;28;20047;-38
2022/08/16 18:19:19;;;;;;;11.57;3.87;;;27.80;99.90;;;;;;12528572;28;20049;-39
2022/08/16 18:25:21;;;;;;;9.95;3.42;;;27.50;99.90;;;;;;12527634;28;20094;-38
2022/08/16 18:31:23;;;;;;;11.93;3.87;;;27.30;99.90;;;;;;12527617;28;20049;-38
2022/08/16 18:37:25;;;;;;;9.75;3.70;;;27.30;99.90;;;;;;12533183;28;20056;-34
2022/08/16 18:43:27;;;;;;;16.73;7.03;;;27.40;99.90;;;;;;12520435;28;20076;-37
2022/08/16 18:49:49;;;;;;;10.77;3.70;;;27.20;99.90;;;;;;12526535;28;20049;-34
2022/08/16 18:55:54;;;;;;;5.77;3.47;;;27.00;99.90;;;;;;12526859;28;20086;-34
2022/08/16 19:01:58;;;;;;;11.32;4.82;;;26.60;99.90;;;;;;12531739;28;20472;-34
2022/08/16 19:08:06;;;;;;;8.38;3.80;;;26.40;99.90;;;;;;12520836;28;20057;-38
2022/08/16 19:14:08;;;;;;;12.13;3.80;;;26.30;99.90;;;;;;12526301;28;20526;-39
2022/08/16 19:20:11;;;;;;;10.18;3.75;;;26.10;99.90;;;;;;12525717;28;20049;-37
2022/08/16 19:26:17;;;;;;;11.23;3.50;;;26.00;99.90;;;;;;12505173;28;20094;-33
2022/08/16 19:32:27;;;;;;;;;;;25.90;99.90;;;;;;12522022;28;20056;-37
2022/08/16 19:38:30;;;;;;;10.10;3.80;;;25.70;99.90;;;;;;12526613;28;20380;-33
2022/08/16 19:44:32;;;;;;;7.23;3.80;;;25.50;99.90;;;;;;12520961;28;20527;-35
2022/08/16 19:50:34;;;;;;;5.07;3.50;;;25.30;99.90;;;;;;12523520;28;20041;-37
2022/08/16 19:56:37;;;;;;;4.90;3.22;;;25.20;99.90;;;;;;12517835;28;20041;-37
2022/08/16 20:02:49;;;;;;;6.88;3.65;;;25.00;99.90;;;;;;12518103;28;20056;-38
2022/08/16 20:08:51;;;;;;;6.55;3.35;;;24.90;99.90;;;;;;12522654;28;20473;-33
2022/08/16 20:14:53;;;;;;;8.13;3.10;;;24.80;99.90;;;;;;12515759;28;20045;-37
2022/08/16 20:20:55;;;;;;;7.40;3.63;;;24.60;99.90;;;;;;12513178;28;20053;-38
2022/08/16 20:26:57;;;;;;;5.10;3.58;;;24.50;99.90;;;;;;12506756;28;20045;-38
2022/08/16 20:32:59;;;;;;;5.70;3.50;;;24.50;99.90;;;;;;12517721;28;20438;-33
2022/08/16 20:39:03;;;;;;;7.20;3.78;;;24.40;99.90;;;;;;12524266;28;20122;-38
2022/08/16 20:45:07;;;;;;;6.05;3.28;;;24.40;99.90;;;;;;12519194;28;20485;-38
2022/08/16 20:51:09;;;;;;;8.57;3.35;;;24.30;99.90;;;;;;12522854;28;20071;-37
2022/08/16 20:57:12;;;;;;;6.63;3.27;;;24.20;99.90;;;;;;12515522;28;20090;-33
2022/08/16 21:03:14;;;;;;;6.80;3.72;;;24.10;99.90;;;;;;12514507;28;20060;-37
2022/08/16 21:09:17;;;;;;;6.85;3.40;;;24.10;99.90;;;;;;12511208;28;20038;-38
2022/08/16 21:15:20;;;;;;;6.10;3.42;;;24.00;99.90;;;;;;12522669;28;20135;-34
2022/08/16 21:21:22;;;;;;;7.03;3.40;;;24.00;99.90;;;;;;12531300;28;20044;-33
2022/08/16 21:27:32;;;;;;;8.82;3.72;;;23.90;99.90;;;;;;12527980;28;20053;-37
2022/08/16 21:33:41;;;;;;;6.25;3.40;;;23.70;99.90;;;;;;12523030;28;20094;-37
2022/08/16 21:39:43;;;;;;;7.32;3.45;;;23.60;99.90;;;;;;12520285;28;20080;-37
2022/08/16 21:45:46;;;;;;;7.25;3.40;;;23.50;99.90;;;;;;12528296;28;20053;-33
2022/08/16 21:51:55;;;;;;;5.18;3.45;;;23.50;99.90;;;;;;12530779;28;20674;-37
2022/08/16 21:57:57;;;;;;;6.72;3.30;;;23.30;99.90;;;;;;12533154;28;20052;-37
2022/08/16 22:03:58;;;;;;;5.00;3.65;;;23.40;99.90;;;;;;12526896;28;20467;-37
2022/08/16 22:10:22;;;;;;;7.35;3.95;;;23.40;99.90;;;;;;12523608;28;20045;-37
2022/08/16 22:16:44;;;;;;;9.25;3.90;;;23.50;99.90;;;;;;12523335;28;20057;-33
2022/08/16 22:22:47;;;;;;;6.03;3.45;;;23.40;99.90;;;;;;12525097;28;20167;-33
2022/08/16 22:28:49;;;;;;;5.57;3.45;;;23.40;99.90;;;;;;12520300;28;20497;-33
2022/08/16 22:34:51;;;;;;;11.95;3.80;;;23.30;99.90;;;;;;12524993;28;20049;-37
2022/08/16 22:40:54;;;;;;;7.75;3.72;;;23.10;99.90;;;;;;12526202;28;20057;-33
2022/08/16 22:46:55;;;;;;;8.77;4.57;;;22.90;99.90;;;;;;12522300;28;20568;-37
2022/08/16 22:52:58;;;;;;;10.00;4.57;;;22.70;99.90;;;;;;12518455;28;20101;-37
2022/08/16 22:59:00;;;;;;;10.95;4.60;;;22.70;99.90;;;;;;12525223;28;20059;-37
2022/08/16 23:05:02;;;;;;;7.03;4.80;;;22.70;99.90;;;;;;12518107;28;20064;-37
2022/08/16 23:11:04;;;;;;;9.35;4.80;;;22.50;99.90;;;;;;12521496;28;20052;-36
2022/08/16 23:17:07;;;;;;;8.70;5.20;;;22.40;99.90;;;;;;12523078;28;20865;-33
2022/08/16 23:23:11;;;;;;;8.30;5.30;;;22.30;99.90;;;;;;12513080;28;20098;-33
2022/08/16 23:29:22;;;;;;;12.30;4.93;;;22.20;99.90;;;;;;12523966;28;20461;-33
2022/08/16 23:35:34;;;;;;;10.20;4.75;;;22.20;99.90;;;;;;12525157;28;20045;-33
2022/08/16 23:41:46;;;;;;;7.47;4.53;;;22.10;99.90;;;;;;12525589;28;20394;-33
2022/08/16 23:47:48;;;;;;;8.05;5.40;;;21.90;99.90;;;;;;12528715;28;20542;-37
2022/08/16 23:53:50;;;;;;;6.53;4.70;;;21.90;99.90;;;;;;12525126;28;20080;-37
2022/08/16 23:59:51;;;;;;;10.73;5.10;;;21.90;99.90;;;;;;12520599;28;20057;-37
